sensor_id;sensor_type;location;lat;lon;timestamp;temperature;humidity
7648;DHT22;3866;48.020;11.720;2022-11-15T00:00:14;3.80;99.90
7648;DHT22;3866;48.020;11.720;2022-11-15T00:02:43;3.70;99.90
7648;DHT22;3866;48.020;11.720;2022-11-15T00:05:11;3.50;99.90
7648;DHT22;3866;48.020;11.720;2022-11-15T00:07:39;3.50;99.90
7648;DHT22;3866;48.020;11.720;2022-11-15T00:10:06;3.40;99.90
7648;DHT22;3866;48.020;11.720;2022-11-15T00:12:34;3.40;99.90
7648;DHT22;3866;48.020;11.720;2022-11-15T00:15:01;3.40;99.90
7648;DHT22;3866;48.020;11.720;2022-11-15T00:17:31;3.40;99.90
7648;DHT22;3866;48.020;11.720;2022-11-15T00:19:58;3.30;99.90
7648;DHT22;3866;48.020;11.720;2022-11-15T00:22:25;3.20;99.90
7648;DHT22;3866;48.020;11.720;2022-11-15T00:24:58;3.20;99.90
7648;DHT22;3866;48.020;11.720;2022-11-15T00:27:25;3.10;99.90
7648;DHT22;3866;48.020;11.720;2022-11-15T00:29:55;3.20;99.90
7648;DHT22;3866;48.020;11.720;2022-11-15T00:32:22;3.20;99.90
7648;DHT22;3866;48.020;11.720;2022-11-15T00:34:51;3.10;99.90
7648;DHT22;3866;48.020;11.720;2022-11-15T00:37:18;3.10;99.90
7648;DHT22;3866;48.020;11.720;2022-11-15T00:39:46;3.00;99.90
7648;DHT22;3866;48.020;11.720;2022-11-15T00:42:14;2.90;99.90
7648;DHT22;3866;48.020;11.720;2022-11-15T00:44:41;2.70;99.90
7648;DHT22;3866;48.020;11.720;2022-11-15T00:47:08;2.80;99.90
7648;DHT22;3866;48.020;11.720;2022-11-15T00:49:37;2.90;99.90
7648;DHT22;3866;48.020;11.720;2022-11-15T00:52:06;2.80;99.90
7648;DHT22;3866;48.020;11.720;2022-11-15T00:54:34;2.70;99.90
7648;DHT22;3866;48.020;11.720;2022-11-15T00:57:01;2.60;99.90
7648;DHT22;3866;48.020;11.720;2022-11-15T00:59:29;2.70;99.90
7648;DHT22;3866;48.020;11.720;2022-11-15T01:01:56;2.50;99.90
7648;DHT22;3866;48.020;11.720;2022-11-15T01:04:23;2.50;99.90
7648;DHT22;3866;48.020;11.720;2022-11-15T01:06:53;2.40;99.90
7648;DHT22;3866;48.020;11.720;2022-11-15T01:09:22;2.50;99.90
7648;DHT22;3866;48.020;11.720;2022-11-15T01:11:50;2.50;99.90
7648;DHT22;3866;48.020;11.720;2022-11-15T01:14:17;2.60;99.90
7648;DHT22;3866;48.020;11.720;2022-11-15T01:16:44;2.50;99.90
7648;DHT22;3866;48.020;11.720;2022-11-15T01:19:12;2.50;99.90
7648;DHT22;3866;48.020;11.720;2022-11-15T01:21:39;2.50;99.90
7648;DHT22;3866;48.020;11.720;2022-11-15T01:24:08;2.50;99.90
7648;DHT22;3866;48.020;11.720;2022-11-15T01:26:40;2.40;99.90
7648;DHT22;3866;48.020;11.720;2022-11-15T01:29:09;2.40;99.90
7648;DHT22;3866;48.020;11.720;2022-11-15T01:31:37;2.30;99.90
7648;DHT22;3866;48.020;11.720;2022-11-15T01:34:05;2.30;99.90
7648;DHT22;3866;48.020;11.720;2022-11-15T01:36:34;2.30;99.90
7648;DHT22;3866;48.020;11.720;2022-11-15T01:39:02;2.50;99.90
7648;DHT22;3866;48.020;11.720;2022-11-15T01:41:32;2.40;99.90
7648;DHT22;3866;48.020;11.720;2022-11-15T01:47:17;2.30;99.90
7648;DHT22;3866;48.020;11.720;2022-11-15T01:49:50;2.30;99.90
7648;DHT22;3866;48.020;11.720;2022-11-15T01:52:21;2.40;99.90
7648;DHT22;3866;48.020;11.720;2022-11-15T01:54:53;2.50;99.90
7648;DHT22;3866;48.020;11.720;2022-11-15T01:57:22;2.50;99.90
7648;DHT22;3866;48.020;11.720;2022-11-15T01:59:49;2.60;99.90
7648;DHT22;3866;48.020;11.720;2022-11-15T02:02:17;2.60;99.90
7648;DHT22;3866;48.020;11.720;2022-11-15T02:04:46;2.60;99.90
7648;DHT22;3866;48.020;11.720;2022-11-15T02:07:16;2.90;99.90
7648;DHT22;3866;48.020;11.720;2022-11-15T02:09:46;3.10;99.90
7648;DHT22;3866;48.020;11.720;2022-11-15T02:12:17;3.20;99.90
7648;DHT22;3866;48.020;11.720;2022-11-15T02:14:48;3.10;99.90
7648;DHT22;3866;48.020;11.720;2022-11-15T02:17:50;3.00;99.90
7648;DHT22;3866;48.020;11.720;2022-11-15T02:20:47;3.10;99.90
7648;DHT22;3866;48.020;11.720;2022-11-15T02:23:47;3.00;99.90
7648;DHT22;3866;48.020;11.720;2022-11-15T02:29:37;3.00;99.90
7648;DHT22;3866;48.020;11.720;2022-11-15T02:32:18;3.00;99.90
7648;DHT22;3866;48.020;11.720;2022-11-15T02:34:52;3.20;99.90
7648;DHT22;3866;48.020;11.720;2022-11-15T02:37:41;3.10;99.90
7648;DHT22;3866;48.020;11.720;2022-11-15T02:40:18;3.00;99.90
7648;DHT22;3866;48.020;11.720;2022-11-15T02:42:54;2.90;99.90
7648;DHT22;3866;48.020;11.720;2022-11-15T02:45:44;3.00;99.90
7648;DHT22;3866;48.020;11.720;2022-11-15T02:48:15;3.10;99.90
7648;DHT22;3866;48.020;11.720;2022-11-15T02:50:46;3.00;99.90
7648;DHT22;3866;48.020;11.720;2022-11-15T02:53:14;3.10;99.90
7648;DHT22;3866;48.020;11.720;2022-11-15T02:55:44;3.10;99.90
7648;DHT22;3866;48.020;11.720;2022-11-15T02:58:35;3.00;99.90
7648;DHT22;3866;48.020;11.720;2022-11-15T03:01:12;3.10;99.90
7648;DHT22;3866;48.020;11.720;2022-11-15T03:03:59;3.10;99.90
7648;DHT22;3866;48.020;11.720;2022-11-15T03:06:35;3.10;99.90
7648;DHT22;3866;48.020;11.720;2022-11-15T03:09:08;3.00;99.90
7648;DHT22;3866;48.020;11.720;2022-11-15T03:11:43;3.10;99.90
7648;DHT22;3866;48.020;11.720;2022-11-15T03:14:21;3.10;99.90
7648;DHT22;3866;48.020;11.720;2022-11-15T03:16:58;3.20;99.90
7648;DHT22;3866;48.020;11.720;2022-11-15T03:19:32;3.10;99.90
7648;DHT22;3866;48.020;11.720;2022-11-15T03:22:04;3.00;99.90
7648;DHT22;3866;48.020;11.720;2022-11-15T03:24:36;2.90;99.90
7648;DHT22;3866;48.020;11.720;2022-11-15T03:27:06;2.80;99.90
7648;DHT22;3866;48.020;11.720;2022-11-15T03:29:40;2.60;99.90
7648;DHT22;3866;48.020;11.720;2022-11-15T03:32:12;2.50;99.90
7648;DHT22;3866;48.020;11.720;2022-11-15T03:34:46;2.50;99.90
7648;DHT22;3866;48.020;11.720;2022-11-15T03:37:16;2.40;99.90
7648;DHT22;3866;48.020;11.720;2022-11-15T03:39:45;2.40;99.90
7648;DHT22;3866;48.020;11.720;2022-11-15T03:42:20;2.40;99.90
7648;DHT22;3866;48.020;11.720;2022-11-15T03:44:56;2.30;99.90
7648;DHT22;3866;48.020;11.720;2022-11-15T03:47:29;2.20;99.90
7648;DHT22;3866;48.020;11.720;2022-11-15T03:50:01;2.40;99.90
7648;DHT22;3866;48.020;11.720;2022-11-15T03:52:32;2.50;99.90
7648;DHT22;3866;48.020;11.720;2022-11-15T03:55:04;2.20;99.90
7648;DHT22;3866;48.020;11.720;2022-11-15T03:57:32;2.00;99.90
7648;DHT22;3866;48.020;11.720;2022-11-15T03:59:59;1.90;99.90
7648;DHT22;3866;48.020;11.720;2022-11-15T04:02:26;1.70;99.90
7648;DHT22;3866;48.020;11.720;2022-11-15T04:04:55;1.60;99.90
7648;DHT22;3866;48.020;11.720;2022-11-15T04:07:25;1.60;99.90
7648;DHT22;3866;48.020;11.720;2022-11-15T04:09:53;1.50;99.90
7648;DHT22;3866;48.020;11.720;2022-11-15T04:12:34;1.40;99.90
7648;DHT22;3866;48.020;11.720;2022-11-15T04:15:04;1.30;99.90
7648;DHT22;3866;48.020;11.720;2022-11-15T04:17:39;1.20;99.90
7648;DHT22;3866;48.020;11.720;2022-11-15T04:20:10;1.10;99.90
7648;DHT22;3866;48.020;11.720;2022-11-15T04:22:57;1.40;99.90
7648;DHT22;3866;48.020;11.720;2022-11-15T04:25:42;1.30;99.90
7648;DHT22;3866;48.020;11.720;2022-11-15T04:28:11;1.20;99.90
7648;DHT22;3866;48.020;11.720;2022-11-15T04:30:39;1.40;99.90
7648;DHT22;3866;48.020;11.720;2022-11-15T04:33:07;1.50;99.90
7648;DHT22;3866;48.020;11.720;2022-11-15T04:35:34;1.50;99.90
7648;DHT22;3866;48.020;11.720;2022-11-15T04:38:04;1.20;99.90
7648;DHT22;3866;48.020;11.720;2022-11-15T04:40:32;1.10;99.90
7648;DHT22;3866;48.020;11.720;2022-11-15T04:43:00;1.10;99.90
7648;DHT22;3866;48.020;11.720;2022-11-15T04:45:26;1.10;99.90
7648;DHT22;3866;48.020;11.720;2022-11-15T04:47:53;1.10;99.90
7648;DHT22;3866;48.020;11.720;2022-11-15T04:50:20;1.10;99.90
7648;DHT22;3866;48.020;11.720;2022-11-15T04:52:51;1.10;99.90
7648;DHT22;3866;48.020;11.720;2022-11-15T04:55:20;0.90;99.90
7648;DHT22;3866;48.020;11.720;2022-11-15T04:57:57;0.80;99.90
7648;DHT22;3866;48.020;11.720;2022-11-15T05:00:25;0.80;99.90
7648;DHT22;3866;48.020;11.720;2022-11-15T05:02:54;0.90;99.90
7648;DHT22;3866;48.020;11.720;2022-11-15T05:05:40;1.00;99.90
7648;DHT22;3866;48.020;11.720;2022-11-15T05:08:08;0.90;99.90
7648;DHT22;3866;48.020;11.720;2022-11-15T05:10:38;0.80;99.90
7648;DHT22;3866;48.020;11.720;2022-11-15T05:13:05;0.80;99.90
7648;DHT22;3866;48.020;11.720;2022-11-15T05:15:34;0.90;99.90
7648;DHT22;3866;48.020;11.720;2022-11-15T05:18:02;0.80;99.90
7648;DHT22;3866;48.020;11.720;2022-11-15T05:20:29;1.00;99.90
7648;DHT22;3866;48.020;11.720;2022-11-15T05:22:57;1.10;99.90
7648;DHT22;3866;48.020;11.720;2022-11-15T05:25:24;1.10;99.90
7648;DHT22;3866;48.020;11.720;2022-11-15T05:27:53;1.00;99.90
7648;DHT22;3866;48.020;11.720;2022-11-15T05:30:22;0.90;99.90
7648;DHT22;3866;48.020;11.720;2022-11-15T05:32:49;1.00;99.90
7648;DHT22;3866;48.020;11.720;2022-11-15T05:35:22;1.00;99.90
7648;DHT22;3866;48.020;11.720;2022-11-15T05:37:53;0.90;99.90
7648;DHT22;3866;48.020;11.720;2022-11-15T05:40:21;0.90;99.90
7648;DHT22;3866;48.020;11.720;2022-11-15T05:42:50;1.00;99.90
7648;DHT22;3866;48.020;11.720;2022-11-15T05:45:20;0.90;99.90
7648;DHT22;3866;48.020;11.720;2022-11-15T05:47:49;0.90;99.90
7648;DHT22;3866;48.020;11.720;2022-11-15T05:50:18;0.80;99.90
7648;DHT22;3866;48.020;11.720;2022-11-15T05:52:46;0.70;99.90
7648;DHT22;3866;48.020;11.720;2022-11-15T05:55:15;0.90;99.90
7648;DHT22;3866;48.020;11.720;2022-11-15T05:57:43;0.70;99.90
7648;DHT22;3866;48.020;11.720;2022-11-15T06:00:12;0.60;99.90
7648;DHT22;3866;48.020;11.720;2022-11-15T06:02:41;0.50;99.90
7648;DHT22;3866;48.020;11.720;2022-11-15T06:05:09;0.40;99.90
7648;DHT22;3866;48.020;11.720;2022-11-15T06:07:37;0.40;99.90
7648;DHT22;3866;48.020;11.720;2022-11-15T06:10:04;0.30;99.90
7648;DHT22;3866;48.020;11.720;2022-11-15T06:12:33;0.30;99.90
7648;DHT22;3866;48.020;11.720;2022-11-15T06:15:01;0.40;99.90
7648;DHT22;3866;48.020;11.720;2022-11-15T06:17:29;0.60;99.90
7648;DHT22;3866;48.020;11.720;2022-11-15T06:19:58;0.70;99.90
7648;DHT22;3866;48.020;11.720;2022-11-15T06:22:26;0.60;99.90
7648;DHT22;3866;48.020;11.720;2022-11-15T06:24:53;0.80;99.90
7648;DHT22;3866;48.020;11.720;2022-11-15T06:27:20;0.90;99.90
7648;DHT22;3866;48.020;11.720;2022-11-15T06:29:47;0.80;99.90
7648;DHT22;3866;48.020;11.720;2022-11-15T06:32:14;0.70;99.90
7648;DHT22;3866;48.020;11.720;2022-11-15T06:34:42;0.60;99.90
7648;DHT22;3866;48.020;11.720;2022-11-15T06:37:11;0.60;99.90
7648;DHT22;3866;48.020;11.720;2022-11-15T06:39:39;0.60;99.90
7648;DHT22;3866;48.020;11.720;2022-11-15T06:42:08;0.70;99.90
7648;DHT22;3866;48.020;11.720;2022-11-15T06:44:35;0.80;99.90
7648;DHT22;3866;48.020;11.720;2022-11-15T06:47:02;0.90;99.90
7648;DHT22;3866;48.020;11.720;2022-11-15T06:49:32;1.00;99.90
7648;DHT22;3866;48.020;11.720;2022-11-15T06:52:01;1.30;99.90
7648;DHT22;3866;48.020;11.720;2022-11-15T06:54:29;1.40;99.90
7648;DHT22;3866;48.020;11.720;2022-11-15T06:56:56;1.40;99.90
7648;DHT22;3866;48.020;11.720;2022-11-15T06:59:23;1.40;99.90
7648;DHT22;3866;48.020;11.720;2022-11-15T07:01:51;1.60;99.90
7648;DHT22;3866;48.020;11.720;2022-11-15T07:04:18;1.70;99.90
7648;DHT22;3866;48.020;11.720;2022-11-15T07:06:46;1.90;99.90
7648;DHT22;3866;48.020;11.720;2022-11-15T07:09:14;2.00;99.90
7648;DHT22;3866;48.020;11.720;2022-11-15T07:11:46;2.20;99.90
7648;DHT22;3866;48.020;11.720;2022-11-15T07:14:16;2.10;99.90
7648;DHT22;3866;48.020;11.720;2022-11-15T07:16:44;2.10;99.90
7648;DHT22;3866;48.020;11.720;2022-11-15T07:19:13;2.10;99.90
7648;DHT22;3866;48.020;11.720;2022-11-15T07:21:39;2.20;99.90
7648;DHT22;3866;48.020;11.720;2022-11-15T07:24:08;2.20;99.90
7648;DHT22;3866;48.020;11.720;2022-11-15T07:26:36;2.40;99.90
7648;DHT22;3866;48.020;11.720;2022-11-15T07:29:04;3.00;99.90
7648;DHT22;3866;48.020;11.720;2022-11-15T07:31:31;3.60;99.90
7648;DHT22;3866;48.020;11.720;2022-11-15T07:33:58;4.20;99.90
7648;DHT22;3866;48.020;11.720;2022-11-15T07:36:25;4.70;99.90
7648;DHT22;3866;48.020;11.720;2022-11-15T07:38:53;5.70;99.90
7648;DHT22;3866;48.020;11.720;2022-11-15T07:41:19;6.80;99.90
7648;DHT22;3866;48.020;11.720;2022-11-15T07:43:46;7.70;99.90
7648;DHT22;3866;48.020;11.720;2022-11-15T07:46:16;10.10;99.90
7648;DHT22;3866;48.020;11.720;2022-11-15T07:48:44;12.00;99.90
7648;DHT22;3866;48.020;11.720;2022-11-15T07:51:12;11.50;99.90
7648;DHT22;3866;48.020;11.720;2022-11-15T07:53:42;10.00;99.90
7648;DHT22;3866;48.020;11.720;2022-11-15T07:56:09;8.20;99.90
7648;DHT22;3866;48.020;11.720;2022-11-15T07:58:37;9.20;99.90
7648;DHT22;3866;48.020;11.720;2022-11-15T08:01:06;10.20;99.90
7648;DHT22;3866;48.020;11.720;2022-11-15T08:03:37;10.60;99.90
7648;DHT22;3866;48.020;11.720;2022-11-15T08:06:05;11.30;99.90
7648;DHT22;3866;48.020;11.720;2022-11-15T08:08:32;13.80;99.90
7648;DHT22;3866;48.020;11.720;2022-11-15T08:11:00;14.80;99.90
7648;DHT22;3866;48.020;11.720;2022-11-15T08:13:27;12.80;99.90
7648;DHT22;3866;48.020;11.720;2022-11-15T08:15:58;13.80;99.90
7648;DHT22;3866;48.020;11.720;2022-11-15T08:18:27;15.50;99.90
7648;DHT22;3866;48.020;11.720;2022-11-15T08:20:58;15.80;99.90
7648;DHT22;3866;48.020;11.720;2022-11-15T08:23:26;14.80;99.90
7648;DHT22;3866;48.020;11.720;2022-11-15T08:25:59;14.20;99.90
7648;DHT22;3866;48.020;11.720;2022-11-15T08:28:27;15.20;99.90
7648;DHT22;3866;48.020;11.720;2022-11-15T08:30:56;15.00;99.90
7648;DHT22;3866;48.020;11.720;2022-11-15T08:33:24;15.00;99.90
7648;DHT22;3866;48.020;11.720;2022-11-15T08:35:55;14.70;99.90
7648;DHT22;3866;48.020;11.720;2022-11-15T08:38:25;13.70;99.90
7648;DHT22;3866;48.020;11.720;2022-11-15T08:41:00;12.90;99.90
7648;DHT22;3866;48.020;11.720;2022-11-15T08:43:29;14.00;99.90
7648;DHT22;3866;48.020;11.720;2022-11-15T08:45:57;15.50;99.90
7648;DHT22;3866;48.020;11.720;2022-11-15T08:48:26;15.30;99.90
7648;DHT22;3866;48.020;11.720;2022-11-15T08:50:55;15.70;99.90
7648;DHT22;3866;48.020;11.720;2022-11-15T08:53:24;15.70;99.90
7648;DHT22;3866;48.020;11.720;2022-11-15T08:55:53;15.20;99.90
7648;DHT22;3866;48.020;11.720;2022-11-15T08:58:21;15.70;99.90
7648;DHT22;3866;48.020;11.720;2022-11-15T09:00:49;15.80;99.90
7648;DHT22;3866;48.020;11.720;2022-11-15T09:03:18;15.10;99.90
7648;DHT22;3866;48.020;11.720;2022-11-15T09:05:46;13.30;99.90
7648;DHT22;3866;48.020;11.720;2022-11-15T09:08:14;12.60;99.90
7648;DHT22;3866;48.020;11.720;2022-11-15T09:10:43;13.00;99.90
7648;DHT22;3866;48.020;11.720;2022-11-15T09:13:12;13.90;99.90
7648;DHT22;3866;48.020;11.720;2022-11-15T09:15:40;13.80;99.90
7648;DHT22;3866;48.020;11.720;2022-11-15T09:18:08;13.20;99.90
7648;DHT22;3866;48.020;11.720;2022-11-15T09:20:36;13.20;99.90
7648;DHT22;3866;48.020;11.720;2022-11-15T09:23:05;13.50;99.90
7648;DHT22;3866;48.020;11.720;2022-11-15T09:25:33;13.90;99.90
7648;DHT22;3866;48.020;11.720;2022-11-15T09:28:05;14.20;99.90
7648;DHT22;3866;48.020;11.720;2022-11-15T09:30:34;14.60;99.90
7648;DHT22;3866;48.020;11.720;2022-11-15T09:33:07;13.60;99.90
7648;DHT22;3866;48.020;11.720;2022-11-15T09:35:35;13.70;99.90
7648;DHT22;3866;48.020;11.720;2022-11-15T09:38:03;13.40;99.90
7648;DHT22;3866;48.020;11.720;2022-11-15T09:40:32;13.90;99.90
7648;DHT22;3866;48.020;11.720;2022-11-15T09:43:25;13.10;99.90
7648;DHT22;3866;48.020;11.720;2022-11-15T09:46:03;13.40;99.90
7648;DHT22;3866;48.020;11.720;2022-11-15T09:48:51;13.30;99.90
7648;DHT22;3866;48.020;11.720;2022-11-15T09:51:26;14.50;99.90
7648;DHT22;3866;48.020;11.720;2022-11-15T09:54:00;15.10;99.90
7648;DHT22;3866;48.020;11.720;2022-11-15T09:56:32;15.00;99.90
7648;DHT22;3866;48.020;11.720;2022-11-15T09:59:19;15.20;99.90
7648;DHT22;3866;48.020;11.720;2022-11-15T10:01:57;14.80;99.90
7648;DHT22;3866;48.020;11.720;2022-11-15T10:04:28;13.30;99.90
7648;DHT22;3866;48.020;11.720;2022-11-15T10:07:02;13.50;99.90
7648;DHT22;3866;48.020;11.720;2022-11-15T10:09:38;14.20;99.90
7648;DHT22;3866;48.020;11.720;2022-11-15T10:12:12;14.20;99.90
7648;DHT22;3866;48.020;11.720;2022-11-15T10:14:45;14.00;99.90
7648;DHT22;3866;48.020;11.720;2022-11-15T10:20:23;13.70;99.90
7648;DHT22;3866;48.020;11.720;2022-11-15T10:22:55;13.10;99.90
7648;DHT22;3866;48.020;11.720;2022-11-15T10:25:25;12.90;99.90
7648;DHT22;3866;48.020;11.720;2022-11-15T10:27:58;12.80;99.90
7648;DHT22;3866;48.020;11.720;2022-11-15T10:30:37;12.90;99.90
7648;DHT22;3866;48.020;11.720;2022-11-15T10:33:31;12.80;99.90
7648;DHT22;3866;48.020;11.720;2022-11-15T10:36:30;12.50;99.90
7648;DHT22;3866;48.020;11.720;2022-11-15T10:38:58;12.40;99.90
7648;DHT22;3866;48.020;11.720;2022-11-15T10:41:37;12.40;99.90
7648;DHT22;3866;48.020;11.720;2022-11-15T10:44:21;12.60;99.90
7648;DHT22;3866;48.020;11.720;2022-11-15T10:47:24;12.90;99.90
7648;DHT22;3866;48.020;11.720;2022-11-15T10:50:03;13.30;99.90
7648;DHT22;3866;48.020;11.720;2022-11-15T10:52:31;13.50;99.90
7648;DHT22;3866;48.020;11.720;2022-11-15T10:55:05;13.40;99.90
7648;DHT22;3866;48.020;11.720;2022-11-15T10:57:37;13.20;99.90
7648;DHT22;3866;48.020;11.720;2022-11-15T11:00:27;13.20;99.90
7648;DHT22;3866;48.020;11.720;2022-11-15T11:03:05;13.00;99.90
7648;DHT22;3866;48.020;11.720;2022-11-15T11:05:36;13.00;99.90
7648;DHT22;3866;48.020;11.720;2022-11-15T11:08:22;12.90;99.90
7648;DHT22;3866;48.020;11.720;2022-11-15T11:10:54;13.00;99.90
7648;DHT22;3866;48.020;11.720;2022-11-15T11:13:24;13.30;99.90
7648;DHT22;3866;48.020;11.720;2022-11-15T11:15:56;13.60;99.90
7648;DHT22;3866;48.020;11.720;2022-11-15T11:18:29;14.10;99.90
7648;DHT22;3866;48.020;11.720;2022-11-15T11:21:04;14.50;99.90
7648;DHT22;3866;48.020;11.720;2022-11-15T11:23:45;14.50;99.90
7648;DHT22;3866;48.020;11.720;2022-11-15T11:26:31;14.70;99.90
7648;DHT22;3866;48.020;11.720;2022-11-15T11:29:14;15.30;99.90
7648;DHT22;3866;48.020;11.720;2022-11-15T11:31:50;15.40;99.90
7648;DHT22;3866;48.020;11.720;2022-11-15T11:34:34;15.70;99.90
7648;DHT22;3866;48.020;11.720;2022-11-15T11:37:07;15.50;99.90
7648;DHT22;3866;48.020;11.720;2022-11-15T11:39:44;15.60;99.90
7648;DHT22;3866;48.020;11.720;2022-11-15T11:42:22;15.50;99.90
7648;DHT22;3866;48.020;11.720;2022-11-15T11:45:00;15.40;99.90
7648;DHT22;3866;48.020;11.720;2022-11-15T11:47:34;15.40;99.90
7648;DHT22;3866;48.020;11.720;2022-11-15T11:50:11;15.00;99.90
7648;DHT22;3866;48.020;11.720;2022-11-15T11:52:55;15.20;99.90
7648;DHT22;3866;48.020;11.720;2022-11-15T11:55:28;15.20;99.90
7648;DHT22;3866;48.020;11.720;2022-11-15T11:58:04;15.30;99.90
7648;DHT22;3866;48.020;11.720;2022-11-15T12:00:34;15.40;99.90
7648;DHT22;3866;48.020;11.720;2022-11-15T12:03:11;15.70;99.90
7648;DHT22;3866;48.020;11.720;2022-11-15T12:05:44;16.00;99.90
7648;DHT22;3866;48.020;11.720;2022-11-15T12:08:29;15.90;99.90
7648;DHT22;3866;48.020;11.720;2022-11-15T12:11:04;15.80;99.90
7648;DHT22;3866;48.020;11.720;2022-11-15T12:13:35;15.90;99.90
7648;DHT22;3866;48.020;11.720;2022-11-15T12:16:10;16.00;99.90
7648;DHT22;3866;48.020;11.720;2022-11-15T12:18:44;15.80;99.90
7648;DHT22;3866;48.020;11.720;2022-11-15T12:21:21;15.50;99.90
7648;DHT22;3866;48.020;11.720;2022-11-15T12:23:54;15.20;99.90
7648;DHT22;3866;48.020;11.720;2022-11-15T12:26:29;14.80;99.90
7648;DHT22;3866;48.020;11.720;2022-11-15T12:29:00;14.50;99.90
7648;DHT22;3866;48.020;11.720;2022-11-15T12:31:35;14.50;99.90
7648;DHT22;3866;48.020;11.720;2022-11-15T12:34:12;15.00;99.90
7648;DHT22;3866;48.020;11.720;2022-11-15T12:36:43;15.20;99.90
7648;DHT22;3866;48.020;11.720;2022-11-15T12:39:11;15.20;99.90
7648;DHT22;3866;48.020;11.720;2022-11-15T12:41:39;15.30;99.90
7648;DHT22;3866;48.020;11.720;2022-11-15T12:44:10;15.10;99.90
7648;DHT22;3866;48.020;11.720;2022-11-15T12:47:01;15.00;99.90
7648;DHT22;3866;48.020;11.720;2022-11-15T12:49:45;15.20;99.90
7648;DHT22;3866;48.020;11.720;2022-11-15T12:52:14;15.50;99.90
7648;DHT22;3866;48.020;11.720;2022-11-15T12:55:01;15.70;99.90
7648;DHT22;3866;48.020;11.720;2022-11-15T12:57:41;15.90;99.90
7648;DHT22;3866;48.020;11.720;2022-11-15T13:00:38;15.80;99.90
7648;DHT22;3866;48.020;11.720;2022-11-15T13:03:22;15.70;99.90
7648;DHT22;3866;48.020;11.720;2022-11-15T13:09:01;16.00;99.90
7648;DHT22;3866;48.020;11.720;2022-11-15T13:11:52;16.50;99.90
7648;DHT22;3866;48.020;11.720;2022-11-15T13:14:50;16.50;99.90
7648;DHT22;3866;48.020;11.720;2022-11-15T13:17:36;16.90;99.90
7648;DHT22;3866;48.020;11.720;2022-11-15T13:20:19;16.90;99.90
7648;DHT22;3866;48.020;11.720;2022-11-15T13:22:49;17.00;99.90
7648;DHT22;3866;48.020;11.720;2022-11-15T13:28:32;17.10;99.90
7648;DHT22;3866;48.020;11.720;2022-11-15T13:31:03;17.20;99.90
7648;DHT22;3866;48.020;11.720;2022-11-15T13:33:41;17.30;99.90
7648;DHT22;3866;48.020;11.720;2022-11-15T13:36:13;16.90;99.90
7648;DHT22;3866;48.020;11.720;2022-11-15T13:38:43;17.20;99.90
7648;DHT22;3866;48.020;11.720;2022-11-15T13:41:17;17.10;99.90
7648;DHT22;3866;48.020;11.720;2022-11-15T13:43:47;17.40;99.90
7648;DHT22;3866;48.020;11.720;2022-11-15T13:46:20;17.40;99.90
7648;DHT22;3866;48.020;11.720;2022-11-15T13:48:54;17.60;99.90
7648;DHT22;3866;48.020;11.720;2022-11-15T13:51:34;18.00;99.90
7648;DHT22;3866;48.020;11.720;2022-11-15T13:54:09;17.70;99.90
7648;DHT22;3866;48.020;11.720;2022-11-15T13:56:44;17.70;99.90
7648;DHT22;3866;48.020;11.720;2022-11-15T13:59:17;17.30;99.90
7648;DHT22;3866;48.020;11.720;2022-11-15T14:01:49;17.00;99.90
7648;DHT22;3866;48.020;11.720;2022-11-15T14:04:20;17.00;99.90
7648;DHT22;3866;48.020;11.720;2022-11-15T14:06:52;17.00;99.90
7648;DHT22;3866;48.020;11.720;2022-11-15T14:09:31;16.80;99.90
7648;DHT22;3866;48.020;11.720;2022-11-15T14:12:20;16.40;99.90
7648;DHT22;3866;48.020;11.720;2022-11-15T14:14:50;16.20;99.90
7648;DHT22;3866;48.020;11.720;2022-11-15T14:17:20;16.00;99.90
7648;DHT22;3866;48.020;11.720;2022-11-15T14:19:49;16.00;99.90
7648;DHT22;3866;48.020;11.720;2022-11-15T14:22:20;15.50;99.90
7648;DHT22;3866;48.020;11.720;2022-11-15T14:25:07;15.20;99.90
7648;DHT22;3866;48.020;11.720;2022-11-15T14:27:37;15.60;99.90
7648;DHT22;3866;48.020;11.720;2022-11-15T14:30:06;16.00;99.90
7648;DHT22;3866;48.020;11.720;2022-11-15T14:32:41;16.20;99.90
7648;DHT22;3866;48.020;11.720;2022-11-15T14:35:15;15.70;99.90
7648;DHT22;3866;48.020;11.720;2022-11-15T14:37:43;16.00;99.90
7648;DHT22;3866;48.020;11.720;2022-11-15T14:40:14;15.80;99.90
7648;DHT22;3866;48.020;11.720;2022-11-15T14:42:45;15.30;99.90
7648;DHT22;3866;48.020;11.720;2022-11-15T14:45:15;15.10;99.90
7648;DHT22;3866;48.020;11.720;2022-11-15T14:47:43;14.80;99.90
7648;DHT22;3866;48.020;11.720;2022-11-15T14:50:12;14.40;99.90
7648;DHT22;3866;48.020;11.720;2022-11-15T14:52:42;13.80;99.90
7648;DHT22;3866;48.020;11.720;2022-11-15T14:55:16;13.70;99.90
7648;DHT22;3866;48.020;11.720;2022-11-15T14:57:47;13.70;99.90
7648;DHT22;3866;48.020;11.720;2022-11-15T15:00:16;13.40;99.90
7648;DHT22;3866;48.020;11.720;2022-11-15T15:02:46;12.80;99.90
7648;DHT22;3866;48.020;11.720;2022-11-15T15:05:16;12.30;99.90
7648;DHT22;3866;48.020;11.720;2022-11-15T15:07:45;12.30;99.90
7648;DHT22;3866;48.020;11.720;2022-11-15T15:10:13;12.30;99.90
7648;DHT22;3866;48.020;11.720;2022-11-15T15:12:42;12.20;99.90
7648;DHT22;3866;48.020;11.720;2022-11-15T15:15:16;12.00;99.90
7648;DHT22;3866;48.020;11.720;2022-11-15T15:17:45;11.90;99.90
7648;DHT22;3866;48.020;11.720;2022-11-15T15:20:14;11.80;99.90
7648;DHT22;3866;48.020;11.720;2022-11-15T15:22:42;11.50;99.90
7648;DHT22;3866;48.020;11.720;2022-11-15T15:25:21;11.30;99.90
7648;DHT22;3866;48.020;11.720;2022-11-15T15:27:50;11.20;99.90
7648;DHT22;3866;48.020;11.720;2022-11-15T15:30:20;11.20;99.90
7648;DHT22;3866;48.020;11.720;2022-11-15T15:32:49;11.10;99.90
7648;DHT22;3866;48.020;11.720;2022-11-15T15:35:20;10.90;99.90
7648;DHT22;3866;48.020;11.720;2022-11-15T15:37:49;11.00;99.90
7648;DHT22;3866;48.020;11.720;2022-11-15T15:40:20;11.00;99.90
7648;DHT22;3866;48.020;11.720;2022-11-15T15:42:49;10.60;99.90
7648;DHT22;3866;48.020;11.720;2022-11-15T15:45:17;10.50;99.90
7648;DHT22;3866;48.020;11.720;2022-11-15T15:47:47;10.10;99.90
7648;DHT22;3866;48.020;11.720;2022-11-15T15:50:23;10.00;99.90
7648;DHT22;3866;48.020;11.720;2022-11-15T15:52:52;10.00;99.90
7648;DHT22;3866;48.020;11.720;2022-11-15T15:55:21;9.90;99.90
7648;DHT22;3866;48.020;11.720;2022-11-15T15:57:50;9.80;99.90
7648;DHT22;3866;48.020;11.720;2022-11-15T16:00:19;9.70;99.90
7648;DHT22;3866;48.020;11.720;2022-11-15T16:02:48;9.50;99.90
7648;DHT22;3866;48.020;11.720;2022-11-15T16:05:15;9.40;99.90
7648;DHT22;3866;48.020;11.720;2022-11-15T16:07:43;9.20;99.90
7648;DHT22;3866;48.020;11.720;2022-11-15T16:10:17;9.00;99.90
7648;DHT22;3866;48.020;11.720;2022-11-15T16:12:44;8.80;99.90
7648;DHT22;3866;48.020;11.720;2022-11-15T16:15:13;8.60;99.90
7648;DHT22;3866;48.020;11.720;2022-11-15T16:17:49;8.30;99.90
7648;DHT22;3866;48.020;11.720;2022-11-15T16:20:33;8.00;99.90
7648;DHT22;3866;48.020;11.720;2022-11-15T16:23:03;8.10;99.90
7648;DHT22;3866;48.020;11.720;2022-11-15T16:25:35;8.20;99.90
7648;DHT22;3866;48.020;11.720;2022-11-15T16:28:05;8.30;99.90
7648;DHT22;3866;48.020;11.720;2022-11-15T16:30:32;8.30;99.90
7648;DHT22;3866;48.020;11.720;2022-11-15T16:33:01;8.30;99.90
7648;DHT22;3866;48.020;11.720;2022-11-15T16:35:30;8.20;99.90
7648;DHT22;3866;48.020;11.720;2022-11-15T16:37:58;8.10;99.90
7648;DHT22;3866;48.020;11.720;2022-11-15T16:40:28;8.10;99.90